sensor_id;sensor_type;location;lat;lon;timestamp;pressure;altitude;pressure_sealevel;temperature;humidity
23574;BME280;11965;53.640;10.050;2022-09-09T00:04:39;100612.72;;;16.03;100.00
23574;BME280;11965;53.640;10.050;2022-09-09T00:07:13;100625.53;;;16.11;100.00
23574;BME280;11965;53.640;10.050;2022-09-09T00:09:47;100618.59;;;16.13;100.00
23574;BME280;11965;53.640;10.050;2022-09-09T00:15:01;100620.88;;;16.05;100.00
23574;BME280;11965;53.640;10.050;2022-09-09T00:17:41;100613.84;;;16.14;100.00
23574;BME280;11965;53.640;10.050;2022-09-09T00:20:14;100618.88;;;16.12;100.00
23574;BME280;11965;53.640;10.050;2022-09-09T00:22:48;100626.91;;;16.20;100.00
23574;BME280;11965;53.640;10.050;2022-09-09T00:25:28;100623.00;;;16.21;100.00
23574;BME280;11965;53.640;10.050;2022-09-09T00:27:57;100625.81;;;16.21;100.00
23574;BME280;11965;53.640;10.050;2022-09-09T00:30:24;100615.97;;;16.30;100.00
23574;BME280;11965;53.640;10.050;2022-09-09T00:32:54;100622.97;;;16.40;100.00
23574;BME280;11965;53.640;10.050;2022-09-09T00:37:56;100615.41;;;16.28;100.00
23574;BME280;11965;53.640;10.050;2022-09-09T00:40:27;100611.84;;;16.33;100.00
23574;BME280;11965;53.640;10.050;2022-09-09T00:43:28;100614.72;;;16.45;100.00
23574;BME280;11965;53.640;10.050;2022-09-09T00:59:47;100612.19;;;16.67;100.00
23574;BME280;11965;53.640;10.050;2022-09-09T01:02:25;100605.63;;;16.73;100.00
23574;BME280;11965;53.640;10.050;2022-09-09T01:04:52;100610.91;;;16.81;100.00
23574;BME280;11965;53.640;10.050;2022-09-09T01:07:18;100610.66;;;16.83;100.00
23574;BME280;11965;53.640;10.050;2022-09-09T01:09:59;100604.09;;;16.77;100.00
23574;BME280;11965;53.640;10.050;2022-09-09T01:12:42;100609.25;;;16.73;100.00
23574;BME280;11965;53.640;10.050;2022-09-09T01:15:17;100609.03;;;16.75;100.00
23574;BME280;11965;53.640;10.050;2022-09-09T01:17:53;100602.81;;;16.73;100.00
23574;BME280;11965;53.640;10.050;2022-09-09T01:20:26;100596.59;;;16.71;100.00
23574;BME280;11965;53.640;10.050;2022-09-09T01:23:15;100607.75;;;16.77;100.00
23574;BME280;11965;53.640;10.050;2022-09-09T01:28:38;100598.50;;;16.77;100.00
23574;BME280;11965;53.640;10.050;2022-09-09T01:31:13;100604.69;;;16.79;100.00
23574;BME280;11965;53.640;10.050;2022-09-09T01:33:43;100607.34;;;16.74;100.00
23574;BME280;11965;53.640;10.050;2022-09-09T01:36:21;100607.56;;;16.72;100.00
23574;BME280;11965;53.640;10.050;2022-09-09T01:38:51;100606.59;;;16.67;100.00
23574;BME280;11965;53.640;10.050;2022-09-09T01:41:18;100609.25;;;16.73;100.00
23574;BME280;11965;53.640;10.050;2022-09-09T01:44:00;100609.69;;;16.77;100.00
23574;BME280;11965;53.640;10.050;2022-09-09T01:46:28;100612.56;;;16.70;100.00
23574;BME280;11965;53.640;10.050;2022-09-09T01:48:55;100605.88;;;16.71;100.00
23574;BME280;11965;53.640;10.050;2022-09-09T01:51:21;100597.72;;;16.70;100.00
23574;BME280;11965;53.640;10.050;2022-09-09T01:53:47;100595.88;;;16.64;100.00
23574;BME280;11965;53.640;10.050;2022-09-09T01:56:47;100597.09;;;16.68;100.00
23574;BME280;11965;53.640;10.050;2022-09-09T02:02:25;100591.22;;;16.46;100.00
23574;BME280;11965;53.640;10.050;2022-09-09T02:05:22;100593.53;;;16.49;100.00
23574;BME280;11965;53.640;10.050;2022-09-09T02:08:02;100590.88;;;16.42;100.00
23574;BME280;11965;53.640;10.050;2022-09-09T02:10:53;100590.88;;;16.42;100.00
23574;BME280;11965;53.640;10.050;2022-09-09T02:13:32;100598.50;;;16.47;100.00
23574;BME280;11965;53.640;10.050;2022-09-09T02:16:07;100589.75;;;16.43;100.00
23574;BME280;11965;53.640;10.050;2022-09-09T02:19:06;100602.88;;;16.31;100.00
23574;BME280;11965;53.640;10.050;2022-09-09T02:21:44;100616.13;;;16.35;100.00
23574;BME280;11965;53.640;10.050;2022-09-09T02:24:13;100601.16;;;16.30;100.00
23574;BME280;11965;53.640;10.050;2022-09-09T02:26:49;100603.88;;;16.37;100.00
23574;BME280;11965;53.640;10.050;2022-09-09T02:29:37;100607.50;;;16.37;100.00
23574;BME280;11965;53.640;10.050;2022-09-09T02:32:07;100597.88;;;16.33;100.00
23574;BME280;11965;53.640;10.050;2022-09-09T02:34:38;100604.56;;;16.32;100.00
23574;BME280;11965;53.640;10.050;2022-09-09T02:37:07;100598.84;;;16.27;100.00
23574;BME280;11965;53.640;10.050;2022-09-09T02:39:33;100585.81;;;16.21;100.00
23574;BME280;11965;53.640;10.050;2022-09-09T02:42:00;100597.38;;;16.24;100.00
23574;BME280;11965;53.640;10.050;2022-09-09T02:44:30;100594.47;;;16.31;100.00
23574;BME280;11965;53.640;10.050;2022-09-09T02:58:11;100598.47;;;16.23;100.00
23574;BME280;11965;53.640;10.050;2022-09-09T03:00:39;100591.00;;;16.17;100.00
23574;BME280;11965;53.640;10.050;2022-09-09T03:03:07;100584.69;;;16.10;100.00
23574;BME280;11965;53.640;10.050;2022-09-09T03:05:34;100592.25;;;16.21;100.00
23574;BME280;11965;53.640;10.050;2022-09-09T03:08:01;100589.75;;;16.31;100.00
23574;BME280;11965;53.640;10.050;2022-09-09T03:10:27;100594.81;;;16.23;100.00
23574;BME280;11965;53.640;10.050;2022-09-09T03:12:52;100594.22;;;16.21;100.00
23574;BME280;11965;53.640;10.050;2022-09-09T03:15:18;100603.22;;;16.23;100.00
23574;BME280;11965;53.640;10.050;2022-09-09T03:17:44;100597.47;;;16.18;100.00
23574;BME280;11965;53.640;10.050;2022-09-09T03:20:09;100609.03;;;16.21;100.00
23574;BME280;11965;53.640;10.050;2022-09-09T03:22:36;100597.22;;;16.19;100.00
23574;BME280;11965;53.640;10.050;2022-09-09T03:25:02;100612.69;;;16.22;100.00
23574;BME280;11965;53.640;10.050;2022-09-09T03:27:29;100609.03;;;16.21;100.00
23574;BME280;11965;53.640;10.050;2022-09-09T03:29:55;100601.06;;;16.37;100.00
23574;BME280;11965;53.640;10.050;2022-09-09T03:32:23;100608.47;;;16.31;100.00
23574;BME280;11965;53.640;10.050;2022-09-09T03:34:51;100603.31;;;16.16;100.00
23574;BME280;11965;53.640;10.050;2022-09-09T03:37:18;100595.41;;;16.13;100.00
23574;BME280;11965;53.640;10.050;2022-09-09T03:39:44;100604.41;;;16.15;100.00
23574;BME280;11965;53.640;10.050;2022-09-09T03:42:13;100598.88;;;16.08;100.00
23574;BME280;11965;53.640;10.050;2022-09-09T03:44:40;100594.47;;;16.01;100.00
23574;BME280;11965;53.640;10.050;2022-09-09T03:47:07;100594.34;;;15.96;100.00
23574;BME280;11965;53.640;10.050;2022-09-09T03:49:33;100592.97;;;15.86;100.00
23574;BME280;11965;53.640;10.050;2022-09-09T03:51:59;100602.59;;;15.90;100.00
23574;BME280;11965;53.640;10.050;2022-09-09T03:54:26;100610.75;;;15.92;100.00
23574;BME280;11965;53.640;10.050;2022-09-09T03:56:52;100602.47;;;15.85;100.00
23574;BME280;11965;53.640;10.050;2022-09-09T03:59:18;100608.75;;;15.81;100.00
23574;BME280;11965;53.640;10.050;2022-09-09T04:01:44;100608.03;;;15.85;100.00
23574;BME280;11965;53.640;10.050;2022-09-09T04:04:10;100601.72;;;15.90;100.00
23574;BME280;11965;53.640;10.050;2022-09-09T04:06:37;100604.91;;;15.94;100.00
23574;BME280;11965;53.640;10.050;2022-09-09T04:09:02;100607.72;;;15.94;100.00
23574;BME280;11965;53.640;10.050;2022-09-09T04:11:29;100611.09;;;15.96;100.00
23574;BME280;11965;53.640;10.050;2022-09-09T04:13:57;100615.63;;;15.97;100.00
23574;BME280;11965;53.640;10.050;2022-09-09T04:16:23;100613.19;;;16.00;100.00
23574;BME280;11965;53.640;10.050;2022-09-09T04:18:48;100627.25;;;16.12;100.00
23574;BME280;11965;53.640;10.050;2022-09-09T04:21:15;100621.06;;;15.92;100.00
23574;BME280;11965;53.640;10.050;2022-09-09T04:23:41;100618.13;;;15.86;100.00
23574;BME280;11965;53.640;10.050;2022-09-09T04:26:08;100612.91;;;15.90;100.00
23574;BME280;11965;53.640;10.050;2022-09-09T04:28:35;100621.75;;;15.87;100.00
23574;BME280;11965;53.640;10.050;2022-09-09T04:31:07;100622.34;;;15.77;100.00
23574;BME280;11965;53.640;10.050;2022-09-09T04:33:35;100624.09;;;15.90;100.00
23574;BME280;11965;53.640;10.050;2022-09-09T04:36:01;100630.78;;;15.89;100.00
23574;BME280;11965;53.640;10.050;2022-09-09T04:38:26;100630.47;;;15.79;100.00
23574;BME280;11965;53.640;10.050;2022-09-09T04:40:53;100635.44;;;15.77;100.00
23574;BME280;11965;53.640;10.050;2022-09-09T04:43:20;100634.84;;;15.75;100.00
23574;BME280;11965;53.640;10.050;2022-09-09T04:45:47;100635.97;;;15.67;100.00
23574;BME280;11965;53.640;10.050;2022-09-09T04:48:14;100636.44;;;15.64;100.00
23574;BME280;11965;53.640;10.050;2022-09-09T04:50:40;100639.19;;;15.71;100.00
23574;BME280;11965;53.640;10.050;2022-09-09T04:53:06;100634.41;;;15.53;100.00
23574;BME280;11965;53.640;10.050;2022-09-09T04:55:35;100644.19;;;15.62;100.00
23574;BME280;11965;53.640;10.050;2022-09-09T04:58:05;100642.59;;;15.73;100.00
23574;BME280;11965;53.640;10.050;2022-09-09T05:00:32;100642.59;;;15.73;100.00
23574;BME280;11965;53.640;10.050;2022-09-09T05:02:57;100644.53;;;15.72;100.00
23574;BME280;11965;53.640;10.050;2022-09-09T05:05:23;100645.41;;;15.66;100.00
23574;BME280;11965;53.640;10.050;2022-09-09T05:07:49;100644.75;;;15.71;100.00
23574;BME280;11965;53.640;10.050;2022-09-09T05:10:14;100644.53;;;15.72;100.00
23574;BME280;11965;53.640;10.050;2022-09-09T05:12:52;100640.91;;;15.72;100.00
23574;BME280;11965;53.640;10.050;2022-09-09T05:15:18;100644.44;;;15.79;100.00
23574;BME280;11965;53.640;10.050;2022-09-09T05:17:44;100643.13;;;15.81;100.00
23574;BME280;11965;53.640;10.050;2022-09-09T05:20:09;100653.19;;;15.82;100.00
23574;BME280;11965;53.640;10.050;2022-09-09T05:22:34;100650.28;;;15.77;100.00
23574;BME280;11965;53.640;10.050;2022-09-09T05:25:01;100657.22;;;15.68;100.00
23574;BME280;11965;53.640;10.050;2022-09-09T05:27:27;100647.22;;;15.60;100.00
23574;BME280;11965;53.640;10.050;2022-09-09T05:29:52;100654.91;;;15.65;100.00
23574;BME280;11965;53.640;10.050;2022-09-09T05:32:18;100652.09;;;15.65;100.00
23574;BME280;11965;53.640;10.050;2022-09-09T05:34:46;100640.41;;;15.56;100.00
23574;BME280;11965;53.640;10.050;2022-09-09T05:37:12;100650.16;;;15.65;100.00
23574;BME280;11965;53.640;10.050;2022-09-09T05:39:37;100645.13;;;15.56;100.00
23574;BME280;11965;53.640;10.050;2022-09-09T05:42:03;100655.38;;;15.62;100.00
23574;BME280;11965;53.640;10.050;2022-09-09T05:44:31;100655.69;;;15.54;100.00
23574;BME280;11965;53.640;10.050;2022-09-09T05:46:58;100661.19;;;15.60;100.00
23574;BME280;11965;53.640;10.050;2022-09-09T05:49:24;100660.97;;;15.62;100.00
23574;BME280;11965;53.640;10.050;2022-09-09T05:51:49;100654.91;;;15.65;100.00
23574;BME280;11965;53.640;10.050;2022-09-09T05:54:17;100670.28;;;15.74;100.00
23574;BME280;11965;53.640;10.050;2022-09-09T05:56:46;100669.84;;;15.77;100.00
23574;BME280;11965;53.640;10.050;2022-09-09T05:59:14;100668.66;;;15.85;100.00
23574;BME280;11965;53.640;10.050;2022-09-09T06:01:40;100669.69;;;15.90;100.00
23574;BME280;11965;53.640;10.050;2022-09-09T06:04:07;100674.47;;;16.02;100.00
23574;BME280;11965;53.640;10.050;2022-09-09T06:06:36;100678.28;;;16.07;100.00
23574;BME280;11965;53.640;10.050;2022-09-09T06:09:05;100680.81;;;16.09;100.00
23574;BME280;11965;53.640;10.050;2022-09-09T06:11:37;100679.28;;;16.13;100.00
23574;BME280;11965;53.640;10.050;2022-09-09T06:14:04;100680.78;;;16.27;100.00
23574;BME280;11965;53.640;10.050;2022-09-09T06:16:31;100693.38;;;16.37;100.00
23574;BME280;11965;53.640;10.050;2022-09-09T06:18:58;100693.91;;;16.57;100.00
23574;BME280;11965;53.640;10.050;2022-09-09T06:23:51;100708.88;;;16.63;100.00
23574;BME280;11965;53.640;10.050;2022-09-09T06:26:19;100702.84;;;16.66;100.00
23574;BME280;11965;53.640;10.050;2022-09-09T06:28:47;100700.03;;;16.66;100.00
23574;BME280;11965;53.640;10.050;2022-09-09T06:31:15;100696.56;;;16.52;100.00
23574;BME280;11965;53.640;10.050;2022-09-09T06:33:42;100700.13;;;16.59;100.00
23574;BME280;11965;53.640;10.050;2022-09-09T06:36:13;100692.84;;;16.58;100.00
23574;BME280;11965;53.640;10.050;2022-09-09T06:38:40;100699.91;;;16.61;100.00
23574;BME280;11965;53.640;10.050;2022-09-09T06:41:06;100699.28;;;16.59;100.00
23574;BME280;11965;53.640;10.050;2022-09-09T06:43:33;100692.56;;;16.48;100.00
23574;BME280;11965;53.640;10.050;2022-09-09T06:46:12;100697.19;;;16.54;100.00
23574;BME280;11965;53.640;10.050;2022-09-09T06:48:42;100704.28;;;16.68;100.00
23574;BME280;11965;53.640;10.050;2022-09-09T06:53:38;100700.88;;;16.66;100.00
23574;BME280;11965;53.640;10.050;2022-09-09T06:58:37;100699.44;;;16.75;100.00
23574;BME280;11965;53.640;10.050;2022-09-09T07:01:06;100696.66;;;16.75;100.00
23574;BME280;11965;53.640;10.050;2022-09-09T07:03:33;100705.22;;;16.81;100.00
23574;BME280;11965;53.640;10.050;2022-09-09T07:05:59;100712.16;;;16.90;100.00
23574;BME280;11965;53.640;10.050;2022-09-09T07:08:27;100698.16;;;16.90;100.00
23574;BME280;11965;53.640;10.050;2022-09-09T07:10:53;100706.34;;;16.91;100.00
23574;BME280;11965;53.640;10.050;2022-09-09T07:13:28;100692.81;;;16.88;100.00
23574;BME280;11965;53.640;10.050;2022-09-09T07:15:55;100698.44;;;17.00;100.00
23574;BME280;11965;53.640;10.050;2022-09-09T07:18:20;100700.78;;;17.15;100.00
23574;BME280;11965;53.640;10.050;2022-09-09T07:20:53;100703.59;;;17.38;100.00
23574;BME280;11965;53.640;10.050;2022-09-09T07:23:19;100711.16;;;17.50;100.00
23574;BME280;11965;53.640;10.050;2022-09-09T07:25:45;100703.81;;;17.49;100.00
23574;BME280;11965;53.640;10.050;2022-09-09T07:28:11;100711.16;;;17.50;100.00
23574;BME280;11965;53.640;10.050;2022-09-09T07:30:37;100705.53;;;17.38;100.00
23574;BME280;11965;53.640;10.050;2022-09-09T07:33:02;100716.00;;;17.42;100.00
23574;BME280;11965;53.640;10.050;2022-09-09T07:35:28;100704.31;;;17.45;100.00
23574;BME280;11965;53.640;10.050;2022-09-09T07:37:54;100702.34;;;17.46;100.00
23574;BME280;11965;53.640;10.050;2022-09-09T07:40:20;100716.00;;;17.66;100.00
23574;BME280;11965;53.640;10.050;2022-09-09T07:42:47;100714.91;;;17.67;100.00
23574;BME280;11965;53.640;10.050;2022-09-09T07:45:13;100722.00;;;17.81;100.00
23574;BME280;11965;53.640;10.050;2022-09-09T07:47:40;100715.03;;;17.96;100.00
23574;BME280;11965;53.640;10.050;2022-09-09T07:50:09;100724.63;;;18.00;100.00
23574;BME280;11965;53.640;10.050;2022-09-09T07:52:35;100723.09;;;17.92;100.00
23574;BME280;11965;53.640;10.050;2022-09-09T07:55:03;100720.59;;;18.19;100.00
23574;BME280;11965;53.640;10.050;2022-09-09T07:57:30;100725.41;;;18.24;100.00
23574;BME280;11965;53.640;10.050;2022-09-09T07:59:57;100729.88;;;18.48;100.00
23574;BME280;11965;53.640;10.050;2022-09-09T08:02:23;100730.22;;;18.52;100.00
23574;BME280;11965;53.640;10.050;2022-09-09T08:04:50;100728.88;;;18.54;100.00
23574;BME280;11965;53.640;10.050;2022-09-09T08:07:18;100720.47;;;18.71;100.00
23574;BME280;11965;53.640;10.050;2022-09-09T08:09:49;100725.47;;;18.81;100.00
23574;BME280;11965;53.640;10.050;2022-09-09T08:12:20;100728.38;;;18.86;100.00
23574;BME280;11965;53.640;10.050;2022-09-09T08:14:45;100735.34;;;18.84;100.00
23574;BME280;11965;53.640;10.050;2022-09-09T08:17:11;100741.38;;;18.64;100.00
23574;BME280;11965;53.640;10.050;2022-09-09T08:19:37;100740.09;;;18.83;100.00
23574;BME280;11965;53.640;10.050;2022-09-09T08:22:07;100739.84;;;18.85;100.00
23574;BME280;11965;53.640;10.050;2022-09-09T08:24:34;100741.59;;;18.74;100.00
23574;BME280;11965;53.640;10.050;2022-09-09T08:27:01;100741.13;;;18.77;100.00
23574;BME280;11965;53.640;10.050;2022-09-09T08:29:27;100745.41;;;18.96;100.00
23574;BME280;11965;53.640;10.050;2022-09-09T08:31:56;100755.53;;;18.97;100.00
23574;BME280;11965;53.640;10.050;2022-09-09T08:34:23;100752.19;;;18.84;100.00
23574;BME280;11965;53.640;10.050;2022-09-09T08:36:50;100751.84;;;18.80;100.00
23574;BME280;11965;53.640;10.050;2022-09-09T08:39:21;100746.94;;;18.87;100.00
23574;BME280;11965;53.640;10.050;2022-09-09T08:42:13;100748.13;;;18.91;100.00
23574;BME280;11965;53.640;10.050;2022-09-09T08:47:56;100755.38;;;19.04;100.00
23574;BME280;11965;53.640;10.050;2022-09-09T08:50:30;100757.75;;;19.12;100.00
23574;BME280;11965;53.640;10.050;2022-09-09T08:53:22;100758.53;;;19.08;100.00
23574;BME280;11965;53.640;10.050;2022-09-09T08:55:58;100757.75;;;18.95;100.00
23574;BME280;11965;53.640;10.050;2022-09-09T08:58:33;100752.13;;;18.95;100.00
23574;BME280;11965;53.640;10.050;2022-09-09T09:01:17;100762.75;;;18.93;100.00
23574;BME280;11965;53.640;10.050;2022-09-09T09:07:36;100764.91;;;19.03;100.00
23574;BME280;11965;53.640;10.050;2022-09-09T09:10:56;100766.97;;;19.08;100.00
23574;BME280;11965;53.640;10.050;2022-09-09T09:13:02;100767.06;;;19.13;100.00
23574;BME280;11965;53.640;10.050;2022-09-09T09:15:36;100770.13;;;19.11;100.00
23574;BME280;11965;53.640;10.050;2022-09-09T09:18:03;100774.78;;;19.06;100.00
23574;BME280;11965;53.640;10.050;2022-09-09T09:20:49;100770.44;;;19.15;100.00
23574;BME280;11965;53.640;10.050;2022-09-09T09:23:22;100774.22;;;19.37;100.00
23574;BME280;11965;53.640;10.050;2022-09-09T09:25:48;100771.84;;;19.46;100.00
23574;BME280;11965;53.640;10.050;2022-09-09T09:28:17;100770.41;;;19.43;100.00
23574;BME280;11965;53.640;10.050;2022-09-09T09:30:49;100767.91;;;19.47;98.40
23574;BME280;11965;53.640;10.050;2022-09-09T09:33:22;100762.47;;;19.40;100.00
23574;BME280;11965;53.640;10.050;2022-09-09T09:35:50;100763.22;;;19.36;100.00
23574;BME280;11965;53.640;10.050;2022-09-09T09:38:19;100770.47;;;19.49;99.93
23574;BME280;11965;53.640;10.050;2022-09-09T09:40:55;100768.16;;;19.62;100.00
23574;BME280;11965;53.640;10.050;2022-09-09T09:43:31;100775.34;;;19.70;99.47
23574;BME280;11965;53.640;10.050;2022-09-09T09:46:00;100765.59;;;19.61;97.78
23574;BME280;11965;53.640;10.050;2022-09-09T09:48:28;100769.53;;;19.60;100.00
23574;BME280;11965;53.640;10.050;2022-09-09T09:50:56;100763.59;;;19.73;100.00
23574;BME280;11965;53.640;10.050;2022-09-09T09:53:27;100763.91;;;19.94;95.81
23574;BME280;11965;53.640;10.050;2022-09-09T09:55:56;100777.53;;;20.24;98.42
23574;BME280;11965;53.640;10.050;2022-09-09T09:58:23;100769.03;;;20.41;99.00
23574;BME280;11965;53.640;10.050;2022-09-09T10:00:51;100774.66;;;20.41;98.18
23574;BME280;11965;53.640;10.050;2022-09-09T10:03:28;100767.72;;;20.48;96.04
23574;BME280;11965;53.640;10.050;2022-09-09T10:05:55;100775.47;;;20.58;94.68
23574;BME280;11965;53.640;10.050;2022-09-09T10:08:25;100768.38;;;20.78;88.83
23574;BME280;11965;53.640;10.050;2022-09-09T10:19:10;100766.47;;;20.17;96.44
23574;BME280;11965;53.640;10.050;2022-09-09T10:21:58;100770.47;;;20.21;99.11
23574;BME280;11965;53.640;10.050;2022-09-09T10:32:55;100772.78;;;19.69;98.26
23574;BME280;11965;53.640;10.050;2022-09-09T10:35:30;100767.16;;;19.85;98.18
23574;BME280;11965;53.640;10.050;2022-09-09T10:38:19;100775.91;;;19.55;99.18
23574;BME280;11965;53.640;10.050;2022-09-09T10:43:47;100768.84;;;19.53;99.03
23574;BME280;11965;53.640;10.050;2022-09-09T10:52:18;100768.00;;;19.69;88.80
23574;BME280;11965;53.640;10.050;2022-09-09T10:54:59;100757.53;;;19.64;87.90
23574;BME280;11965;53.640;10.050;2022-09-09T10:57:33;100769.22;;;19.73;88.48
23574;BME280;11965;53.640;10.050;2022-09-09T11:00:06;100760.84;;;19.78;86.48
23574;BME280;11965;53.640;10.050;2022-09-09T11:02:40;100759.94;;;19.73;86.18
23574;BME280;11965;53.640;10.050;2022-09-09T11:07:58;100755.13;;;20.12;85.05
23574;BME280;11965;53.640;10.050;2022-09-09T11:10:41;100764.25;;;20.19;85.39
23574;BME280;11965;53.640;10.050;2022-09-09T11:13:23;100753.06;;;20.24;86.78
23574;BME280;11965;53.640;10.050;2022-09-09T11:16:00;100749.25;;;20.36;86.16
23574;BME280;11965;53.640;10.050;2022-09-09T11:18:31;100744.28;;;20.43;84.30
23574;BME280;11965;53.640;10.050;2022-09-09T11:21:02;100760.75;;;20.12;77.21
23574;BME280;11965;53.640;10.050;2022-09-09T11:23:42;100760.72;;;20.07;78.48
23574;BME280;11965;53.640;10.050;2022-09-09T11:26:15;100755.19;;;19.95;84.33
23574;BME280;11965;53.640;10.050;2022-09-09T11:31:44;100760.75;;;20.12;85.98
23574;BME280;11965;53.640;10.050;2022-09-09T11:34:18;100752.38;;;20.17;85.09
23574;BME280;11965;53.640;10.050;2022-09-09T11:36:57;100756.59;;;20.37;83.91
23574;BME280;11965;53.640;10.050;2022-09-09T11:44:39;100765.31;;;21.11;80.50
23574;BME280;11965;53.640;10.050;2022-09-09T11:47:20;100759.25;;;21.25;78.60
23574;BME280;11965;53.640;10.050;2022-09-09T11:49:48;100756.00;;;21.38;72.22
23574;BME280;11965;53.640;10.050;2022-09-09T11:52:35;100760.91;;;21.48;75.24
23574;BME280;11965;53.640;10.050;2022-09-09T11:55:20;100762.28;;;21.45;73.29
23574;BME280;11965;53.640;10.050;2022-09-09T11:57:58;100760.94;;;21.53;75.41
23574;BME280;11965;53.640;10.050;2022-09-09T12:00:33;100766.75;;;21.41;73.36
23574;BME280;11965;53.640;10.050;2022-09-09T12:02:59;100762.00;;;21.42;73.63
23574;BME280;11965;53.640;10.050;2022-09-09T12:05:44;100762.53;;;21.44;76.47
23574;BME280;11965;53.640;10.050;2022-09-09T12:08:15;100756.94;;;21.49;74.02
23574;BME280;11965;53.640;10.050;2022-09-09T12:10:56;100764.41;;;21.33;77.47
23574;BME280;11965;53.640;10.050;2022-09-09T12:13:24;100755.78;;;21.12;77.72
23574;BME280;11965;53.640;10.050;2022-09-09T12:15:50;100753.31;;;21.21;77.49
23574;BME280;11965;53.640;10.050;2022-09-09T12:18:31;100756.88;;;21.11;76.00
23574;BME280;11965;53.640;10.050;2022-09-09T12:21:26;100752.59;;;21.36;74.47
23574;BME280;11965;53.640;10.050;2022-09-09T12:24:02;100759.47;;;21.45;72.82
23574;BME280;11965;53.640;10.050;2022-09-09T12:29:14;100757.31;;;21.30;75.26
23574;BME280;11965;53.640;10.050;2022-09-09T12:31:56;100761.53;;;21.28;77.64
23574;BME280;11965;53.640;10.050;2022-09-09T12:34:42;100761.66;;;21.38;75.88
23574;BME280;11965;53.640;10.050;2022-09-09T12:37:29;100766.97;;;21.34;76.70
23574;BME280;11965;53.640;10.050;2022-09-09T12:39:59;100752.38;;;21.10;75.90
23574;BME280;11965;53.640;10.050;2022-09-09T12:42:26;100758.34;;;21.19;80.21
23574;BME280;11965;53.640;10.050;2022-09-09T12:44:53;100768.09;;;21.06;79.51
23574;BME280;11965;53.640;10.050;2022-09-09T12:47:23;100763.03;;;21.08;78.53
23574;BME280;11965;53.640;10.050;2022-09-09T12:49:51;100763.22;;;20.96;83.20
23574;BME280;11965;53.640;10.050;2022-09-09T12:52:24;100749.78;;;21.04;82.72
23574;BME280;11965;53.640;10.050;2022-09-09T12:54:52;100757.06;;;21.00;86.88
23574;BME280;11965;53.640;10.050;2022-09-09T12:57:19;100753.66;;;20.98;87.17
23574;BME280;11965;53.640;10.050;2022-09-09T12:59:47;100753.28;;;20.89;86.40
23574;BME280;11965;53.640;10.050;2022-09-09T13:02:24;100754.22;;;20.72;84.33
23574;BME280;11965;53.640;10.050;2022-09-09T13:04:50;100756.50;;;20.76;86.64
23574;BME280;11965;53.640;10.050;2022-09-09T13:07:18;100757.16;;;20.83;86.48
23574;BME280;11965;53.640;10.050;2022-09-09T13:09:44;100752.59;;;20.55;87.61
23574;BME280;11965;53.640;10.050;2022-09-09T13:12:16;100758.44;;;20.48;89.00
23574;BME280;11965;53.640;10.050;2022-09-09T13:14:45;100756.47;;;20.48;89.49
23574;BME280;11965;53.640;10.050;2022-09-09T13:17:21;100754.34;;;20.39;89.61
23574;BME280;11965;53.640;10.050;2022-09-09T13:19:48;100749.13;;;20.25;90.77
23574;BME280;11965;53.640;10.050;2022-09-09T13:22:36;100756.56;;;20.15;90.17
23574;BME280;11965;53.640;10.050;2022-09-09T13:25:18;100759.28;;;20.04;88.56
23574;BME280;11965;53.640;10.050;2022-09-09T13:28:02;100767.16;;;19.85;89.45
23574;BME280;11965;53.640;10.050;2022-09-09T13:30:33;100765.19;;;19.86;91.24
23574;BME280;11965;53.640;10.050;2022-09-09T13:35:27;100779.94;;;19.59;92.84
23574;BME280;11965;53.640;10.050;2022-09-09T13:37:52;100781.63;;;19.60;93.20
23574;BME280;11965;53.640;10.050;2022-09-09T13:40:21;100797.84;;;19.70;92.69
23574;BME280;11965;53.640;10.050;2022-09-09T13:42:50;100804.00;;;19.67;92.68
23574;BME280;11965;53.640;10.050;2022-09-09T13:45:21;100811.94;;;19.58;91.94
23574;BME280;11965;53.640;10.050;2022-09-09T13:47:47;100804.03;;;19.55;92.12
23574;BME280;11965;53.640;10.050;2022-09-09T13:50:26;100810.50;;;19.39;91.28
23574;BME280;11965;53.640;10.050;2022-09-09T13:52:53;100814.16;;;19.39;93.32
23574;BME280;11965;53.640;10.050;2022-09-09T13:55:19;100818.59;;;19.52;90.69
23574;BME280;11965;53.640;10.050;2022-09-09T13:58:04;100808.19;;;19.19;97.19
23574;BME280;11965;53.640;10.050;2022-09-09T14:00:33;100807.47;;;18.95;99.15
23574;BME280;11965;53.640;10.050;2022-09-09T14:03:00;100807.66;;;19.05;100.00
23574;BME280;11965;53.640;10.050;2022-09-09T14:05:27;100805.34;;;19.02;100.00
23574;BME280;11965;53.640;10.050;2022-09-09T14:07:53;100805.91;;;18.87;100.00
23574;BME280;11965;53.640;10.050;2022-09-09T14:10:19;100797.16;;;19.01;100.00
23574;BME280;11965;53.640;10.050;2022-09-09T14:12:45;100804.25;;;18.63;100.00
23574;BME280;11965;53.640;10.050;2022-09-09T14:15:12;100798.13;;;18.66;100.00
23574;BME280;11965;53.640;10.050;2022-09-09T14:17:38;100802.41;;;18.68;100.00
23574;BME280;11965;53.640;10.050;2022-09-09T14:20:06;100801.09;;;18.59;100.00
23574;BME280;11965;53.640;10.050;2022-09-09T14:22:32;100801.00;;;18.54;100.00
23574;BME280;11965;53.640;10.050;2022-09-09T14:24:58;100801.75;;;18.49;100.00
23574;BME280;11965;53.640;10.050;2022-09-09T14:27:24;100797.72;;;18.45;100.00